Strona główna
METAR-TAF:

METAR-TAF

Lotnisko :

Pine Ridge, Dakota Południowa, Stany Zjednoczone

Szerokość geograficzna: 43-01-32N, Długość geograficzna: 102-31-23W, wysokość: 1015 m

Aktualna obserwacja pogody

Raport powstał 31 minut temu, godzina 00:52 UTC
Wiatr 6 kt od północny wschód
Temperatura 27°C
Wilgotność 37%
Ciśnienie 1012 hPa
Widzialność: 16.1 km
bezchmurnie

METAR: KIEN 040052Z AUTO 04006KT 10SM CLR 27/11 A2988 RMK AO2 SLP085 T02670106 $

czas: 19:23 (01:23 UTC)


TAF: brakujący

Obserwacja i prognoza pogody dla ponad 4000 lotnisk (raport METAR i TAF).

Dostępne stacje oznaczono żółtymi i czerwonymi punktami na mapie.

Najedź kursorem aby zobaczyć nazwę stacji.

Kliknij aby zobaczyć obserwacje i prognozy pogody.

Aby zmienić mapę: kliknij na zielony przycisk z czarnym krzyżykiem, aby powiększyć; na zielony przycisk z myślnikiem, aby pomniejszyć; na zielone strzałki, aby przejść do map sąsiednich.


METAR-TAF: